createdAt,value
2023-02-15T00:01:02.508Z,9.30
2023-02-15T00:03:28.682Z,9.31
2023-02-15T00:05:54.838Z,9.24
2023-02-15T00:08:21.064Z,9.22
2023-02-15T00:10:47.285Z,9.25
2023-02-15T00:13:13.466Z,9.31
2023-02-15T00:15:39.685Z,9.30
2023-02-15T00:18:05.896Z,9.26
2023-02-15T00:20:32.121Z,9.21
2023-02-15T00:22:58.319Z,9.16
2023-02-15T00:25:24.496Z,9.12
2023-02-15T00:27:50.668Z,9.14
2023-02-15T00:30:16.872Z,9.12
2023-02-15T00:35:25.156Z,9.20
2023-02-15T00:37:51.371Z,9.18
2023-02-15T00:40:17.531Z,9.14
2023-02-15T00:42:43.748Z,9.14
2023-02-15T00:45:09.918Z,9.16
2023-02-15T00:47:36.068Z,9.15
2023-02-15T00:50:02.248Z,9.14
2023-02-15T00:52:29.406Z,9.09
2023-02-15T00:54:55.632Z,9.01
2023-02-15T00:57:21.814Z,8.87
2023-02-15T00:59:47.974Z,8.81
2023-02-15T01:02:14.181Z,8.71
2023-02-15T01:04:40.369Z,8.57
2023-02-15T01:07:06.569Z,8.54
2023-02-15T01:09:32.745Z,8.47
2023-02-15T01:11:58.957Z,8.31
2023-02-15T01:14:25.134Z,8.28
2023-02-15T01:16:51.412Z,8.25
2023-02-15T01:19:17.609Z,8.22
2023-02-15T01:21:43.770Z,8.26
2023-02-15T01:24:10.020Z,8.16
2023-02-15T01:26:36.222Z,8.03
2023-02-15T01:29:02.423Z,7.98
2023-02-15T01:31:28.719Z,7.87
2023-02-15T01:33:54.947Z,7.80
2023-02-15T01:36:21.185Z,7.71
2023-02-15T01:38:47.402Z,7.67
2023-02-15T01:41:13.566Z,7.70
2023-02-15T01:43:39.794Z,7.65
2023-02-15T01:46:06.005Z,7.62
2023-02-15T01:48:32.197Z,7.58
2023-02-15T01:50:58.371Z,7.56
2023-02-15T01:53:24.603Z,7.53
2023-02-15T01:55:50.863Z,7.53
2023-02-15T01:58:17.088Z,7.48
2023-02-15T02:00:43.282Z,7.50
2023-02-15T02:03:09.532Z,7.48
2023-02-15T02:05:35.796Z,7.49
2023-02-15T02:08:02.010Z,7.58
2023-02-15T02:10:28.251Z,7.63
2023-02-15T02:12:54.412Z,7.64
2023-02-15T02:15:20.626Z,7.57
2023-02-15T02:17:46.864Z,7.49
2023-02-15T02:20:13.030Z,7.53
2023-02-15T02:22:39.195Z,7.56
2023-02-15T02:25:05.355Z,7.58
2023-02-15T02:27:31.522Z,7.57
2023-02-15T02:29:57.773Z,7.50
2023-02-15T02:32:23.972Z,7.47
2023-02-15T02:34:50.126Z,7.47
2023-02-15T02:37:16.293Z,7.41
2023-02-15T02:39:42.496Z,7.36
2023-02-15T02:42:08.720Z,7.33
2023-02-15T02:44:34.893Z,7.32
2023-02-15T02:47:01.069Z,7.25
2023-02-15T02:49:27.234Z,7.24
2023-02-15T02:51:53.446Z,7.21
2023-02-15T02:54:19.633Z,7.29
2023-02-15T02:56:45.803Z,7.23
2023-02-15T02:59:11.979Z,7.15
2023-02-15T03:01:38.292Z,7.10
2023-02-15T03:04:04.518Z,7.12
2023-02-15T03:06:30.749Z,7.08
2023-02-15T03:08:56.958Z,7.06
2023-02-15T03:11:23.181Z,7.03
2023-02-15T03:13:49.365Z,6.89
2023-02-15T03:16:15.610Z,6.84
2023-02-15T03:18:41.852Z,6.78
2023-02-15T03:21:08.046Z,6.81
2023-02-15T03:23:34.273Z,6.83
2023-02-15T03:26:00.760Z,6.84
2023-02-15T03:28:27.092Z,6.86
2023-02-15T03:30:53.278Z,6.91
2023-02-15T03:33:19.492Z,6.94
2023-02-15T03:35:45.697Z,6.91
2023-02-15T03:38:11.928Z,6.85
2023-02-15T03:40:38.110Z,6.89
2023-02-15T03:43:04.325Z,6.93
2023-02-15T03:45:30.553Z,6.87
2023-02-15T03:47:56.782Z,6.78
2023-02-15T03:50:23.012Z,6.66
2023-02-15T03:52:49.177Z,6.58
2023-02-15T03:55:15.418Z,6.53
2023-02-15T03:57:41.647Z,6.46
2023-02-15T04:00:07.831Z,6.47
2023-02-15T04:02:34.178Z,6.39
2023-02-15T04:05:00.429Z,6.49
2023-02-15T04:07:26.631Z,6.55
2023-02-15T04:09:52.857Z,6.57
2023-02-15T04:12:19.025Z,6.60
2023-02-15T04:14:45.186Z,6.49
2023-02-15T04:17:11.355Z,6.48
2023-02-15T04:19:37.600Z,6.44
2023-02-15T04:22:03.825Z,6.41
2023-02-15T04:24:29.995Z,6.40
2023-02-15T04:26:56.223Z,6.33
2023-02-15T04:29:22.444Z,6.19
2023-02-15T04:31:48.773Z,6.16
2023-02-15T04:34:15.009Z,6.09
2023-02-15T04:36:41.206Z,6.10
2023-02-15T04:39:07.419Z,6.13
2023-02-15T04:41:33.655Z,6.08
2023-02-15T04:43:59.866Z,6.03
2023-02-15T04:46:26.073Z,5.79
2023-02-15T04:48:52.248Z,5.69
2023-02-15T04:51:18.440Z,5.68
2023-02-15T04:53:44.592Z,5.70
2023-02-15T04:56:10.765Z,5.77
2023-02-15T04:58:36.989Z,5.71
2023-02-15T05:01:03.256Z,5.81
2023-02-15T05:03:29.488Z,5.72
2023-02-15T05:05:55.670Z,5.60
2023-02-15T05:08:21.866Z,5.68
2023-02-15T05:10:48.077Z,5.70
2023-02-15T05:13:14.256Z,5.59
2023-02-15T05:15:40.463Z,5.57
2023-02-15T05:18:06.648Z,5.48
2023-02-15T05:20:32.828Z,5.48
2023-02-15T05:22:58.997Z,5.42
2023-02-15T05:25:25.211Z,5.44
2023-02-15T05:27:51.422Z,5.41
2023-02-15T05:30:17.667Z,5.38
2023-02-15T05:32:43.998Z,5.40
2023-02-15T05:35:10.322Z,5.37
2023-02-15T05:37:36.541Z,5.37
2023-02-15T05:40:02.763Z,5.31
2023-02-15T05:42:28.931Z,5.22
2023-02-15T05:44:55.102Z,5.21
2023-02-15T05:47:21.287Z,5.22
2023-02-15T05:49:47.504Z,5.15
2023-02-15T05:52:13.674Z,5.07
2023-02-15T05:54:39.919Z,5.01
2023-02-15T05:57:06.103Z,5.06
2023-02-15T05:59:32.282Z,5.04
2023-02-15T06:01:58.453Z,5.08
2023-02-15T06:04:24.643Z,5.14
2023-02-15T06:06:50.825Z,5.13
2023-02-15T06:09:17.039Z,5.06
2023-02-15T06:11:43.239Z,4.86
2023-02-15T06:14:09.457Z,4.81
2023-02-15T06:16:35.621Z,4.73
2023-02-15T06:19:01.818Z,4.84
2023-02-15T06:21:28.012Z,4.72
2023-02-15T06:23:54.211Z,4.66
2023-02-15T06:26:20.420Z,4.59
2023-02-15T06:28:46.619Z,4.59
2023-02-15T06:31:12.990Z,4.65
2023-02-15T06:33:39.295Z,4.58
2023-02-15T06:36:05.516Z,4.48
2023-02-15T06:38:31.684Z,4.47
2023-02-15T06:40:57.886Z,4.38
2023-02-15T06:43:24.059Z,4.47
2023-02-15T06:45:50.279Z,4.58
2023-02-15T06:48:16.456Z,4.57
2023-02-15T06:50:42.624Z,4.57
2023-02-15T06:53:08.793Z,4.52
2023-02-15T06:55:35.061Z,4.47
2023-02-15T06:58:01.286Z,4.34
2023-02-15T07:00:27.463Z,4.33
2023-02-15T07:02:53.656Z,4.22
2023-02-15T07:05:19.836Z,4.35
2023-02-15T07:07:46.041Z,4.33
2023-02-15T07:10:12.285Z,4.26
2023-02-15T07:12:38.520Z,4.45
2023-02-15T07:15:04.733Z,4.65
2023-02-15T07:17:38.075Z,4.75
2023-02-15T07:20:04.279Z,4.81
2023-02-15T07:22:30.503Z,4.93
2023-02-15T07:24:56.729Z,5.05
2023-02-15T07:27:22.909Z,5.09
2023-02-15T07:29:49.074Z,5.07
2023-02-15T07:32:15.367Z,5.03
2023-02-15T07:34:41.632Z,5.06
2023-02-15T07:37:07.812Z,5.10
2023-02-15T07:39:34.030Z,4.97
2023-02-15T07:42:00.271Z,4.85
2023-02-15T07:44:26.504Z,4.91
2023-02-15T07:46:52.766Z,5.13
2023-02-15T07:49:19.064Z,5.47
2023-02-15T07:51:45.297Z,5.92
2023-02-15T07:54:11.561Z,6.51
2023-02-15T07:56:37.742Z,6.81
2023-02-15T07:59:03.938Z,6.93
2023-02-15T08:01:30.145Z,6.75
2023-02-15T08:03:56.380Z,6.95
2023-02-15T08:06:22.632Z,7.11
2023-02-15T08:08:48.799Z,7.04
2023-02-15T08:11:14.970Z,6.73
2023-02-15T08:13:41.174Z,6.73
2023-02-15T08:16:07.463Z,6.33
2023-02-15T08:18:33.745Z,6.04
2023-02-15T08:20:59.980Z,5.73
2023-02-15T08:23:26.155Z,5.65
2023-02-15T08:25:52.351Z,5.65
2023-02-15T08:28:18.570Z,5.63
2023-02-15T08:30:44.767Z,5.67
2023-02-15T08:33:10.931Z,5.53
2023-02-15T08:35:37.184Z,5.62
2023-02-15T08:38:03.370Z,5.69
2023-02-15T08:40:29.528Z,5.62
2023-02-15T08:42:55.733Z,5.68
2023-02-15T08:45:21.960Z,5.86
2023-02-15T08:47:48.134Z,5.89
2023-02-15T08:50:14.309Z,5.90
2023-02-15T08:52:40.475Z,6.00
2023-02-15T08:55:06.697Z,6.07
2023-02-15T08:57:32.930Z,6.18
2023-02-15T08:59:59.099Z,6.37
2023-02-15T09:02:25.356Z,6.78
2023-02-15T09:04:51.658Z,7.08
2023-02-15T09:07:17.901Z,7.48
2023-02-15T09:09:44.142Z,7.62
2023-02-15T09:12:10.359Z,7.47
2023-02-15T09:14:36.561Z,7.30
2023-02-15T09:17:02.748Z,7.51
2023-02-15T09:19:28.976Z,7.55
2023-02-15T09:21:55.198Z,7.40
2023-02-15T09:24:21.415Z,7.27
2023-02-15T09:26:47.646Z,7.08
2023-02-15T09:29:13.862Z,7.49
2023-02-15T09:31:40.086Z,7.42
2023-02-15T09:34:06.329Z,7.63
2023-02-15T09:36:32.503Z,7.75
2023-02-15T09:38:58.721Z,7.66
2023-02-15T09:41:24.905Z,7.77
2023-02-15T09:43:51.118Z,8.10
2023-02-15T09:46:17.354Z,8.33
2023-02-15T09:48:43.563Z,8.22
2023-02-15T09:51:09.786Z,8.02
2023-02-15T09:53:35.996Z,7.72
2023-02-15T09:56:02.241Z,7.69
2023-02-15T09:58:28.420Z,7.55
2023-02-15T10:00:54.627Z,7.88
2023-02-15T10:03:20.885Z,8.12
2023-02-15T10:05:47.100Z,8.09
2023-02-15T10:08:13.308Z,7.77
2023-02-15T10:10:39.474Z,7.61
2023-02-15T10:13:05.684Z,7.91
2023-02-15T10:15:31.878Z,8.10
2023-02-15T10:17:58.049Z,7.84
2023-02-15T10:20:24.213Z,7.68
2023-02-15T10:22:50.388Z,7.87
2023-02-15T10:25:16.549Z,8.42
2023-02-15T10:27:42.774Z,8.56
2023-02-15T10:30:09.085Z,8.94
2023-02-15T10:32:35.320Z,9.37
2023-02-15T10:35:01.550Z,9.63
2023-02-15T10:37:27.730Z,9.73
2023-02-15T10:39:53.897Z,10.52
2023-02-15T10:42:20.069Z,11.44
2023-02-15T10:44:46.288Z,12.03
2023-02-15T10:47:12.963Z,12.68
2023-02-15T10:49:39.214Z,12.30
2023-02-15T10:52:05.436Z,11.96
2023-02-15T10:54:31.630Z,11.73
2023-02-15T10:56:57.791Z,11.66
2023-02-15T10:59:23.987Z,11.93
2023-02-15T11:01:50.251Z,11.84
2023-02-15T11:04:17.456Z,11.62
2023-02-15T11:06:43.746Z,11.96
2023-02-15T11:09:09.911Z,11.78
2023-02-15T11:11:36.119Z,11.47
2023-02-15T11:14:02.298Z,11.09
2023-02-15T11:16:28.476Z,11.70
2023-02-15T11:18:54.632Z,12.32
2023-02-15T11:21:20.813Z,12.24
2023-02-15T11:23:46.986Z,12.62
2023-02-15T11:26:13.207Z,12.95
2023-02-15T11:28:39.408Z,12.78
2023-02-15T11:31:05.915Z,12.57
2023-02-15T11:33:32.336Z,13.70
2023-02-15T11:35:58.511Z,13.33
2023-02-15T11:38:24.733Z,12.92
2023-02-15T11:40:50.909Z,12.72
2023-02-15T11:43:17.097Z,12.95
2023-02-15T11:45:43.288Z,12.80
2023-02-15T11:48:09.462Z,12.82
2023-02-15T11:50:35.646Z,12.88
2023-02-15T11:53:01.823Z,12.58
2023-02-15T11:55:27.995Z,12.80
2023-02-15T11:57:54.199Z,13.09
2023-02-15T12:00:20.379Z,13.39
2023-02-15T12:02:46.625Z,13.17
2023-02-15T12:05:12.863Z,12.95
2023-02-15T12:07:39.091Z,12.88
2023-02-15T12:10:05.337Z,12.23
2023-02-15T12:12:31.596Z,12.32
2023-02-15T12:14:57.809Z,12.49
2023-02-15T12:17:23.985Z,13.31
2023-02-15T12:19:50.165Z,13.38
2023-02-15T12:22:16.338Z,13.27
2023-02-15T12:24:42.559Z,12.79
2023-02-15T12:27:08.738Z,12.29
2023-02-15T12:29:34.951Z,12.53
2023-02-15T12:32:01.194Z,13.24
2023-02-15T12:34:27.521Z,12.51
2023-02-15T12:36:53.711Z,12.36
2023-02-15T12:39:19.909Z,12.88
2023-02-15T12:41:46.080Z,13.00
2023-02-15T12:44:15.218Z,13.05
2023-02-15T12:46:41.483Z,12.99
2023-02-15T12:49:07.733Z,13.57
2023-02-15T12:51:33.951Z,13.91
2023-02-15T12:54:00.188Z,13.85
2023-02-15T12:56:26.418Z,13.77
2023-02-15T12:58:52.651Z,14.12
2023-02-15T13:01:18.927Z,14.00
2023-02-15T13:03:45.167Z,14.06
2023-02-15T13:06:11.381Z,13.91
2023-02-15T13:08:37.607Z,13.97
2023-02-15T13:11:04.157Z,13.50
2023-02-15T13:13:30.565Z,13.18
2023-02-15T13:15:56.794Z,13.08
2023-02-15T13:18:22.965Z,13.18
2023-02-15T13:20:49.160Z,13.10
2023-02-15T13:23:15.337Z,12.81
2023-02-15T13:25:41.549Z,12.71
2023-02-15T13:28:07.766Z,12.65
2023-02-15T13:30:33.981Z,12.76
2023-02-15T13:33:00.183Z,12.52
2023-02-15T13:35:26.376Z,12.59
2023-02-15T13:37:52.587Z,12.62
2023-02-15T13:40:18.790Z,12.77
2023-02-15T13:42:45.007Z,12.70
2023-02-15T13:45:11.173Z,12.37
2023-02-15T13:47:37.376Z,12.30
2023-02-15T13:50:03.601Z,12.29
2023-02-15T13:52:29.785Z,12.32
2023-02-15T13:54:56.042Z,12.41
2023-02-15T13:57:22.258Z,12.30
2023-02-15T13:59:48.427Z,12.16
2023-02-15T14:02:14.648Z,12.16
2023-02-15T14:04:40.820Z,12.35
2023-02-15T14:07:06.982Z,12.27
2023-02-15T14:09:33.205Z,12.10
2023-02-15T14:11:59.438Z,11.95
2023-02-15T14:14:25.613Z,11.74
2023-02-15T14:17:05.755Z,11.80
2023-02-15T14:19:33.138Z,11.93
2023-02-15T14:21:59.308Z,11.92
2023-02-15T14:24:25.483Z,11.85
2023-02-15T14:26:51.658Z,11.84
2023-02-15T14:29:17.888Z,11.99
2023-02-15T14:31:44.236Z,12.13
2023-02-15T14:34:10.483Z,11.99
2023-02-15T14:36:36.711Z,11.95
2023-02-15T14:39:05.130Z,11.85
2023-02-15T14:41:32.397Z,12.01
2023-02-15T14:43:58.632Z,12.12
2023-02-15T14:46:24.888Z,12.02
2023-02-15T14:48:51.240Z,11.99
2023-02-15T14:51:17.465Z,11.85
2023-02-15T14:53:43.749Z,11.78
2023-02-15T14:56:09.984Z,11.86
2023-02-15T14:58:36.198Z,11.93
2023-02-15T15:01:02.626Z,12.04
2023-02-15T15:03:29.033Z,12.15
2023-02-15T15:05:55.239Z,12.12
2023-02-15T15:08:21.392Z,12.04
2023-02-15T15:10:47.559Z,12.20
2023-02-15T15:13:13.812Z,12.21
2023-02-15T15:15:40.629Z,12.13
2023-02-15T15:18:06.957Z,12.10
2023-02-15T15:20:33.286Z,12.16
2023-02-15T15:22:59.458Z,12.12
2023-02-15T15:25:25.655Z,12.08
2023-02-15T15:27:51.940Z,12.24
2023-02-15T15:30:18.176Z,12.32
2023-02-15T15:32:44.425Z,12.32
2023-02-15T15:35:10.584Z,12.36
2023-02-15T15:37:36.763Z,12.37
2023-02-15T15:40:02.948Z,12.39
2023-02-15T15:42:29.155Z,12.49
2023-02-15T15:44:55.371Z,12.48
2023-02-15T15:47:21.566Z,12.37
2023-02-15T15:49:47.786Z,12.45
2023-02-15T15:52:13.972Z,12.45
2023-02-15T15:54:40.198Z,12.43
2023-02-15T15:57:06.422Z,12.44
2023-02-15T15:59:32.580Z,12.54
2023-02-15T16:01:58.880Z,12.54
2023-02-15T16:04:25.195Z,12.61
2023-02-15T16:06:51.401Z,12.60
2023-02-15T16:09:17.623Z,12.64
2023-02-15T16:11:43.840Z,12.57
2023-02-15T16:14:10.036Z,12.45
2023-02-15T16:16:36.335Z,12.41
2023-02-15T16:19:02.612Z,12.32
2023-02-15T16:21:28.806Z,12.35
2023-02-15T16:23:55.098Z,12.40
2023-02-15T16:26:21.464Z,12.32
2023-02-15T16:28:47.644Z,12.31
2023-02-15T16:31:13.907Z,12.34
2023-02-15T16:33:40.110Z,12.39
2023-02-15T16:36:06.288Z,12.31
2023-02-15T16:38:32.518Z,12.29
2023-02-15T16:40:58.745Z,12.26
2023-02-15T16:43:24.927Z,12.18
2023-02-15T16:45:51.144Z,12.23
2023-02-15T16:48:17.372Z,12.25
2023-02-15T16:50:43.590Z,12.20
2023-02-15T16:53:09.801Z,12.16
2023-02-15T16:55:36.017Z,12.16
2023-02-15T16:58:02.197Z,12.08
2023-02-15T17:00:28.426Z,12.08
2023-02-15T17:02:56.649Z,12.05
2023-02-15T17:05:23.000Z,12.07
2023-02-15T17:07:49.198Z,12.03
2023-02-15T17:10:16.480Z,12.04
2023-02-15T17:12:42.645Z,11.94
2023-02-15T17:15:10.923Z,11.94
2023-02-15T17:17:38.594Z,11.85
2023-02-15T17:20:04.857Z,11.83
2023-02-15T17:22:31.024Z,11.79
2023-02-15T17:24:57.246Z,11.74
2023-02-15T17:27:23.446Z,11.67
2023-02-15T17:29:49.688Z,11.65
2023-02-15T17:32:16.217Z,11.57
2023-02-15T17:34:43.680Z,11.53
2023-02-15T17:37:09.899Z,11.52
2023-02-15T17:39:36.123Z,11.44
2023-02-15T17:42:02.326Z,11.35
2023-02-15T17:44:28.507Z,11.31
2023-02-15T17:46:54.730Z,11.28
2023-02-15T17:49:20.930Z,11.26
2023-02-15T17:51:47.132Z,11.22
2023-02-15T17:54:13.320Z,11.34
2023-02-15T17:56:39.492Z,11.32
2023-02-15T17:59:05.659Z,11.30
2023-02-15T18:01:31.896Z,11.26
2023-02-15T18:03:58.208Z,11.26
2023-02-15T18:06:24.437Z,11.16
2023-02-15T18:08:50.650Z,11.12
2023-02-15T18:11:16.880Z,11.03
2023-02-15T18:13:43.049Z,11.07
2023-02-15T18:16:09.346Z,11.02
2023-02-15T18:18:35.577Z,11.02
2023-02-15T18:21:02.138Z,10.98
2023-02-15T18:23:28.569Z,10.92
2023-02-15T18:25:54.786Z,10.94
2023-02-15T18:28:20.957Z,10.89
2023-02-15T18:30:47.195Z,10.86
2023-02-15T18:33:13.436Z,10.88
2023-02-15T18:35:39.603Z,10.91
2023-02-15T18:38:05.787Z,10.90
2023-02-15T18:40:31.959Z,10.90
2023-02-15T18:42:58.164Z,10.89
2023-02-15T18:45:24.344Z,10.88
2023-02-15T18:47:50.512Z,10.84
2023-02-15T18:50:16.711Z,10.79
2023-02-15T18:52:42.962Z,10.83
2023-02-15T18:55:09.179Z,10.85
2023-02-15T18:57:35.350Z,10.81
2023-02-15T19:00:01.575Z,10.85
2023-02-15T19:02:27.776Z,10.88
2023-02-15T19:04:53.952Z,10.82
2023-02-15T19:07:20.161Z,10.75
2023-02-15T19:09:46.369Z,10.74
2023-02-15T19:12:12.549Z,10.72
2023-02-15T19:14:38.719Z,10.69
2023-02-15T19:17:04.878Z,10.69
2023-02-15T19:19:31.060Z,10.67
2023-02-15T19:21:57.220Z,10.64
2023-02-15T19:24:25.078Z,10.66
2023-02-15T19:26:51.517Z,10.64
2023-02-15T19:29:17.741Z,10.60
2023-02-15T19:31:44.056Z,10.67
2023-02-15T19:34:10.373Z,10.68
2023-02-15T19:36:36.623Z,10.66
2023-02-15T19:39:02.790Z,10.58
2023-02-15T19:41:28.959Z,10.60
2023-02-15T19:43:55.132Z,10.56
2023-02-15T19:46:21.368Z,10.61
2023-02-15T19:48:49.416Z,10.66
2023-02-15T19:51:16.824Z,10.60
2023-02-15T19:53:43.040Z,10.58
2023-02-15T19:56:09.206Z,10.53
2023-02-15T19:58:35.380Z,10.49
2023-02-15T20:01:01.994Z,10.50
2023-02-15T20:03:28.612Z,10.44
2023-02-15T20:05:54.787Z,10.35
2023-02-15T20:08:20.951Z,10.31
2023-02-15T20:10:47.108Z,10.40
2023-02-15T20:13:13.353Z,10.44
2023-02-15T20:15:39.620Z,10.45
2023-02-15T20:18:05.820Z,10.44
2023-02-15T20:20:32.031Z,10.35
2023-02-15T20:22:58.214Z,10.29
2023-02-15T20:25:24.439Z,10.30
2023-02-15T20:27:50.610Z,10.24
2023-02-15T20:30:16.873Z,10.21
2023-02-15T20:32:43.098Z,10.16
2023-02-15T20:35:09.276Z,10.11
2023-02-15T20:37:35.527Z,10.04
2023-02-15T20:40:01.754Z,10.03
2023-02-15T20:42:28.261Z,10.04
2023-02-15T20:44:54.508Z,10.05
2023-02-15T20:47:20.675Z,10.01
2023-02-15T20:49:46.895Z,9.98
2023-02-15T20:52:13.098Z,9.99
2023-02-15T20:54:39.258Z,9.92
2023-02-15T20:57:05.418Z,9.88
2023-02-15T20:59:31.586Z,9.86
2023-02-15T21:01:57.887Z,9.77
2023-02-15T21:04:24.163Z,9.73
2023-02-15T21:06:50.391Z,9.65
2023-02-15T21:09:16.640Z,9.58
2023-02-15T21:11:42.810Z,9.54
2023-02-15T21:14:08.980Z,9.49
2023-02-15T21:16:35.267Z,9.39
2023-02-15T21:19:01.461Z,9.39
2023-02-15T21:21:27.635Z,9.38
2023-02-15T21:23:53.807Z,9.34
2023-02-15T21:26:20.006Z,9.39
2023-02-15T21:28:46.186Z,9.36
2023-02-15T21:31:12.514Z,9.34
2023-02-15T21:33:38.778Z,9.42
2023-02-15T21:36:04.950Z,9.43
2023-02-15T21:38:31.175Z,9.39
2023-02-15T21:40:57.424Z,9.41
2023-02-15T21:43:23.682Z,9.30
2023-02-15T21:45:49.920Z,9.25
2023-02-15T21:48:16.181Z,9.24
2023-02-15T21:50:42.366Z,9.18
2023-02-15T21:53:08.598Z,9.07
2023-02-15T21:55:34.777Z,8.93
2023-02-15T21:58:00.988Z,8.92
2023-02-15T22:00:27.222Z,8.89
2023-02-15T22:02:53.453Z,8.84
2023-02-15T22:05:19.691Z,8.84
2023-02-15T22:07:45.913Z,8.74
2023-02-15T22:10:12.076Z,8.74
2023-02-15T22:12:38.285Z,8.69
2023-02-15T22:15:04.469Z,8.75
2023-02-15T22:17:30.667Z,8.77
2023-02-15T22:19:56.939Z,8.75
2023-02-15T22:22:23.187Z,8.65
2023-02-15T22:24:49.385Z,8.58
2023-02-15T22:27:15.631Z,8.59
2023-02-15T22:29:41.869Z,8.52
2023-02-15T22:32:08.161Z,8.57
2023-02-15T22:34:34.370Z,8.57
2023-02-15T22:37:00.614Z,8.54
2023-02-15T22:39:26.808Z,8.55
2023-02-15T22:41:53.007Z,8.52
2023-02-15T22:44:19.170Z,8.56
2023-02-15T22:46:45.372Z,8.62
2023-02-15T22:49:11.545Z,8.61
2023-02-15T22:51:37.743Z,8.64
2023-02-15T22:54:03.899Z,8.64
2023-02-15T22:56:30.099Z,8.61
2023-02-15T22:58:56.318Z,8.54
2023-02-15T23:01:22.522Z,8.54
2023-02-15T23:03:48.735Z,8.54
2023-02-15T23:06:14.890Z,8.49
2023-02-15T23:08:41.131Z,8.47
2023-02-15T23:11:07.297Z,8.47
2023-02-15T23:13:33.471Z,8.39
2023-02-15T23:15:59.673Z,8.39
2023-02-15T23:18:25.869Z,8.31
2023-02-15T23:20:52.100Z,8.32
2023-02-15T23:23:18.333Z,8.32
2023-02-15T23:25:44.518Z,8.33
2023-02-15T23:28:10.716Z,8.30
2023-02-15T23:30:36.879Z,8.24
2023-02-15T23:33:03.037Z,8.27
2023-02-15T23:35:29.193Z,8.23
2023-02-15T23:37:55.413Z,8.21
2023-02-15T23:40:21.631Z,8.17
2023-02-15T23:42:47.844Z,8.15
2023-02-15T23:45:14.008Z,8.04
2023-02-15T23:47:40.218Z,7.92
2023-02-15T23:50:06.488Z,7.87
2023-02-15T23:52:32.698Z,7.87
2023-02-15T23:54:58.878Z,7.84
2023-02-15T23:57:25.084Z,7.82
2023-02-15T23:59:51.311Z,7.82
